sensor_id;sensor_type;location;lat;lon;timestamp;P1;durP1;ratioP1;P2;durP2;ratioP2
76729;SDS011;65653;53.106;18.046;2024-02-26T00:01:48;117.40;;;42.00;;
76729;SDS011;65653;53.106;18.046;2024-02-26T00:04:14;116.50;;;43.70;;
76729;SDS011;65653;53.106;18.046;2024-02-26T00:06:41;106.20;;;39.60;;
76729;SDS011;65653;53.106;18.046;2024-02-26T00:09:08;107.60;;;40.30;;
76729;SDS011;65653;53.106;18.046;2024-02-26T00:11:35;109.40;;;41.50;;
76729;SDS011;65653;53.106;18.046;2024-02-26T00:14:02;116.80;;;44.40;;
76729;SDS011;65653;53.106;18.046;2024-02-26T00:16:29;114.20;;;45.30;;
76729;SDS011;65653;53.106;18.046;2024-02-26T00:18:56;114.80;;;42.40;;
76729;SDS011;65653;53.106;18.046;2024-02-26T00:21:22;123.30;;;46.60;;
76729;SDS011;65653;53.106;18.046;2024-02-26T00:23:49;116.40;;;44.70;;
76729;SDS011;65653;53.106;18.046;2024-02-26T00:26:19;122.80;;;44.30;;
76729;SDS011;65653;53.106;18.046;2024-02-26T00:28:45;126.70;;;45.80;;
76729;SDS011;65653;53.106;18.046;2024-02-26T00:31:12;124.90;;;45.40;;
76729;SDS011;65653;53.106;18.046;2024-02-26T00:33:38;128.20;;;45.00;;
76729;SDS011;65653;53.106;18.046;2024-02-26T00:36:05;124.90;;;45.00;;
76729;SDS011;65653;53.106;18.046;2024-02-26T00:38:32;113.20;;;41.90;;
76729;SDS011;65653;53.106;18.046;2024-02-26T00:40:59;89.50;;;35.80;;
76729;SDS011;65653;53.106;18.046;2024-02-26T00:43:25;87.00;;;33.50;;
76729;SDS011;65653;53.106;18.046;2024-02-26T00:45:52;117.10;;;42.50;;
76729;SDS011;65653;53.106;18.046;2024-02-26T00:48:18;110.20;;;42.20;;
76729;SDS011;65653;53.106;18.046;2024-02-26T00:50:45;117.50;;;43.10;;
76729;SDS011;65653;53.106;18.046;2024-02-26T00:53:11;121.10;;;43.10;;
76729;SDS011;65653;53.106;18.046;2024-02-26T00:55:38;111.90;;;42.50;;
76729;SDS011;65653;53.106;18.046;2024-02-26T00:58:04;120.20;;;42.00;;
76729;SDS011;65653;53.106;18.046;2024-02-26T01:00:31;77.50;;;28.30;;
76729;SDS011;65653;53.106;18.046;2024-02-26T01:02:57;63.90;;;24.00;;
76729;SDS011;65653;53.106;18.046;2024-02-26T01:05:25;85.80;;;33.30;;
76729;SDS011;65653;53.106;18.046;2024-02-26T01:07:52;62.50;;;24.10;;
76729;SDS011;65653;53.106;18.046;2024-02-26T01:10:19;82.80;;;29.60;;
76729;SDS011;65653;53.106;18.046;2024-02-26T01:12:45;79.10;;;28.80;;
76729;SDS011;65653;53.106;18.046;2024-02-26T01:15:12;54.30;;;21.10;;
76729;SDS011;65653;53.106;18.046;2024-02-26T01:17:38;69.20;;;26.60;;
76729;SDS011;65653;53.106;18.046;2024-02-26T01:20:06;63.30;;;24.30;;
76729;SDS011;65653;53.106;18.046;2024-02-26T01:22:34;77.90;;;28.00;;
76729;SDS011;65653;53.106;18.046;2024-02-26T01:25:01;68.30;;;25.10;;
76729;SDS011;65653;53.106;18.046;2024-02-26T01:27:27;58.30;;;21.60;;
76729;SDS011;65653;53.106;18.046;2024-02-26T01:29:54;53.00;;;21.70;;
76729;SDS011;65653;53.106;18.046;2024-02-26T01:32:21;52.10;;;20.50;;
76729;SDS011;65653;53.106;18.046;2024-02-26T01:34:48;52.70;;;21.40;;
76729;SDS011;65653;53.106;18.046;2024-02-26T01:37:14;50.10;;;20.80;;
76729;SDS011;65653;53.106;18.046;2024-02-26T01:39:41;67.30;;;26.40;;
76729;SDS011;65653;53.106;18.046;2024-02-26T01:42:08;58.30;;;24.10;;
76729;SDS011;65653;53.106;18.046;2024-02-26T01:44:34;73.60;;;29.40;;
76729;SDS011;65653;53.106;18.046;2024-02-26T01:47:00;79.30;;;30.20;;
76729;SDS011;65653;53.106;18.046;2024-02-26T01:49:29;79.70;;;31.80;;
76729;SDS011;65653;53.106;18.046;2024-02-26T01:51:56;86.40;;;33.60;;
76729;SDS011;65653;53.106;18.046;2024-02-26T01:54:24;93.30;;;34.80;;
76729;SDS011;65653;53.106;18.046;2024-02-26T01:56:51;91.70;;;34.60;;
76729;SDS011;65653;53.106;18.046;2024-02-26T01:59:18;81.50;;;32.10;;
76729;SDS011;65653;53.106;18.046;2024-02-26T02:01:45;62.60;;;26.00;;
76729;SDS011;65653;53.106;18.046;2024-02-26T02:04:17;61.00;;;25.50;;
76729;SDS011;65653;53.106;18.046;2024-02-26T02:06:45;48.60;;;21.20;;
76729;SDS011;65653;53.106;18.046;2024-02-26T02:09:12;61.70;;;28.40;;
76729;SDS011;65653;53.106;18.046;2024-02-26T02:11:38;58.70;;;25.30;;
76729;SDS011;65653;53.106;18.046;2024-02-26T02:14:05;64.10;;;28.20;;
76729;SDS011;65653;53.106;18.046;2024-02-26T02:16:32;52.40;;;23.10;;
76729;SDS011;65653;53.106;18.046;2024-02-26T02:18:58;67.20;;;27.40;;
76729;SDS011;65653;53.106;18.046;2024-02-26T02:21:25;65.20;;;27.50;;
76729;SDS011;65653;53.106;18.046;2024-02-26T02:23:51;53.20;;;24.00;;
76729;SDS011;65653;53.106;18.046;2024-02-26T02:26:18;49.10;;;21.70;;
76729;SDS011;65653;53.106;18.046;2024-02-26T02:28:45;61.70;;;28.00;;
76729;SDS011;65653;53.106;18.046;2024-02-26T02:31:13;55.80;;;25.00;;
76729;SDS011;65653;53.106;18.046;2024-02-26T02:33:40;62.30;;;26.60;;
76729;SDS011;65653;53.106;18.046;2024-02-26T02:36:07;62.60;;;28.10;;
76729;SDS011;65653;53.106;18.046;2024-02-26T02:38:36;64.50;;;27.80;;
76729;SDS011;65653;53.106;18.046;2024-02-26T02:41:03;63.70;;;25.60;;
76729;SDS011;65653;53.106;18.046;2024-02-26T02:43:30;64.30;;;26.50;;
76729;SDS011;65653;53.106;18.046;2024-02-26T02:45:56;60.40;;;27.20;;
76729;SDS011;65653;53.106;18.046;2024-02-26T02:48:23;58.20;;;25.80;;
76729;SDS011;65653;53.106;18.046;2024-02-26T02:50:49;56.30;;;24.00;;
76729;SDS011;65653;53.106;18.046;2024-02-26T02:53:16;59.60;;;24.80;;
76729;SDS011;65653;53.106;18.046;2024-02-26T02:55:42;52.60;;;21.70;;
76729;SDS011;65653;53.106;18.046;2024-02-26T02:58:09;37.20;;;17.40;;
76729;SDS011;65653;53.106;18.046;2024-02-26T03:00:35;34.30;;;16.30;;
76729;SDS011;65653;53.106;18.046;2024-02-26T03:03:02;36.10;;;18.30;;
76729;SDS011;65653;53.106;18.046;2024-02-26T03:05:28;32.60;;;16.20;;
76729;SDS011;65653;53.106;18.046;2024-02-26T03:07:55;34.90;;;17.90;;
76729;SDS011;65653;53.106;18.046;2024-02-26T03:10:21;30.20;;;17.00;;
76729;SDS011;65653;53.106;18.046;2024-02-26T03:12:48;50.60;;;23.00;;
76729;SDS011;65653;53.106;18.046;2024-02-26T03:15:14;33.50;;;17.00;;
76729;SDS011;65653;53.106;18.046;2024-02-26T03:17:41;42.80;;;17.90;;
76729;SDS011;65653;53.106;18.046;2024-02-26T03:20:08;28.40;;;13.50;;
76729;SDS011;65653;53.106;18.046;2024-02-26T03:22:35;27.00;;;14.60;;
76729;SDS011;65653;53.106;18.046;2024-02-26T03:25:02;27.60;;;14.00;;
76729;SDS011;65653;53.106;18.046;2024-02-26T03:27:28;25.30;;;12.30;;
76729;SDS011;65653;53.106;18.046;2024-02-26T03:29:55;26.20;;;12.30;;
76729;SDS011;65653;53.106;18.046;2024-02-26T03:32:21;25.90;;;13.20;;
76729;SDS011;65653;53.106;18.046;2024-02-26T03:34:48;18.20;;;9.10;;
76729;SDS011;65653;53.106;18.046;2024-02-26T03:37:14;20.80;;;12.10;;
76729;SDS011;65653;53.106;18.046;2024-02-26T03:39:41;24.80;;;12.50;;
76729;SDS011;65653;53.106;18.046;2024-02-26T03:42:07;29.20;;;12.90;;
76729;SDS011;65653;53.106;18.046;2024-02-26T03:44:34;24.10;;;12.80;;
76729;SDS011;65653;53.106;18.046;2024-02-26T03:47:00;21.00;;;11.00;;
76729;SDS011;65653;53.106;18.046;2024-02-26T03:49:27;21.40;;;11.30;;
76729;SDS011;65653;53.106;18.046;2024-02-26T03:51:53;22.10;;;11.60;;
76729;SDS011;65653;53.106;18.046;2024-02-26T03:54:20;24.80;;;12.40;;
76729;SDS011;65653;53.106;18.046;2024-02-26T03:56:46;23.40;;;11.10;;
76729;SDS011;65653;53.106;18.046;2024-02-26T03:59:12;24.00;;;11.90;;
76729;SDS011;65653;53.106;18.046;2024-02-26T04:01:39;21.70;;;10.80;;
76729;SDS011;65653;53.106;18.046;2024-02-26T04:04:10;19.80;;;10.50;;
76729;SDS011;65653;53.106;18.046;2024-02-26T04:06:37;22.90;;;11.80;;
76729;SDS011;65653;53.106;18.046;2024-02-26T04:09:03;26.80;;;12.90;;
76729;SDS011;65653;53.106;18.046;2024-02-26T04:11:30;29.90;;;14.40;;
76729;SDS011;65653;53.106;18.046;2024-02-26T04:13:56;36.40;;;16.10;;
76729;SDS011;65653;53.106;18.046;2024-02-26T04:16:24;30.90;;;15.70;;
76729;SDS011;65653;53.106;18.046;2024-02-26T04:18:51;25.00;;;11.80;;
76729;SDS011;65653;53.106;18.046;2024-02-26T04:21:19;27.80;;;12.90;;
76729;SDS011;65653;53.106;18.046;2024-02-26T04:23:46;33.40;;;15.20;;
76729;SDS011;65653;53.106;18.046;2024-02-26T04:26:13;35.70;;;17.30;;
76729;SDS011;65653;53.106;18.046;2024-02-26T04:28:39;33.70;;;15.00;;
76729;SDS011;65653;53.106;18.046;2024-02-26T04:31:05;27.20;;;13.10;;
76729;SDS011;65653;53.106;18.046;2024-02-26T04:33:33;29.00;;;11.50;;
76729;SDS011;65653;53.106;18.046;2024-02-26T04:36:01;27.50;;;13.50;;
76729;SDS011;65653;53.106;18.046;2024-02-26T04:38:27;23.80;;;11.90;;
76729;SDS011;65653;53.106;18.046;2024-02-26T04:40:54;24.30;;;12.10;;
76729;SDS011;65653;53.106;18.046;2024-02-26T04:43:20;22.70;;;10.80;;
76729;SDS011;65653;53.106;18.046;2024-02-26T04:45:47;21.90;;;11.70;;
76729;SDS011;65653;53.106;18.046;2024-02-26T04:48:14;24.50;;;11.70;;
76729;SDS011;65653;53.106;18.046;2024-02-26T04:50:40;23.20;;;11.60;;
76729;SDS011;65653;53.106;18.046;2024-02-26T04:53:07;21.50;;;11.50;;
76729;SDS011;65653;53.106;18.046;2024-02-26T04:55:34;20.70;;;10.70;;
76729;SDS011;65653;53.106;18.046;2024-02-26T04:58:00;25.70;;;12.80;;
76729;SDS011;65653;53.106;18.046;2024-02-26T05:00:27;22.00;;;11.20;;
76729;SDS011;65653;53.106;18.046;2024-02-26T05:02:53;25.70;;;12.60;;
76729;SDS011;65653;53.106;18.046;2024-02-26T05:05:20;25.20;;;13.40;;
76729;SDS011;65653;53.106;18.046;2024-02-26T05:07:46;30.10;;;15.10;;
76729;SDS011;65653;53.106;18.046;2024-02-26T05:10:13;23.40;;;12.50;;
76729;SDS011;65653;53.106;18.046;2024-02-26T05:12:40;24.60;;;12.70;;
76729;SDS011;65653;53.106;18.046;2024-02-26T05:15:09;22.10;;;11.20;;
76729;SDS011;65653;53.106;18.046;2024-02-26T05:17:36;26.40;;;13.00;;
76729;SDS011;65653;53.106;18.046;2024-02-26T05:20:03;23.00;;;11.50;;
76729;SDS011;65653;53.106;18.046;2024-02-26T05:22:30;25.60;;;12.00;;
76729;SDS011;65653;53.106;18.046;2024-02-26T05:24:56;25.10;;;12.90;;
76729;SDS011;65653;53.106;18.046;2024-02-26T05:27:22;23.50;;;11.90;;
76729;SDS011;65653;53.106;18.046;2024-02-26T05:29:50;24.20;;;11.80;;
76729;SDS011;65653;53.106;18.046;2024-02-26T05:32:18;22.80;;;11.70;;
76729;SDS011;65653;53.106;18.046;2024-02-26T05:34:44;22.30;;;11.40;;
76729;SDS011;65653;53.106;18.046;2024-02-26T05:37:11;22.40;;;11.80;;
76729;SDS011;65653;53.106;18.046;2024-02-26T05:39:37;27.90;;;13.40;;
76729;SDS011;65653;53.106;18.046;2024-02-26T05:42:05;30.50;;;14.90;;
76729;SDS011;65653;53.106;18.046;2024-02-26T05:44:31;29.30;;;13.90;;
76729;SDS011;65653;53.106;18.046;2024-02-26T05:46:58;35.60;;;17.60;;
76729;SDS011;65653;53.106;18.046;2024-02-26T05:49:24;29.10;;;14.10;;
76729;SDS011;65653;53.106;18.046;2024-02-26T05:51:51;29.90;;;16.10;;
76729;SDS011;65653;53.106;18.046;2024-02-26T05:54:17;35.70;;;16.90;;
76729;SDS011;65653;53.106;18.046;2024-02-26T05:56:43;41.00;;;18.30;;
76729;SDS011;65653;53.106;18.046;2024-02-26T05:59:10;37.50;;;18.80;;
76729;SDS011;65653;53.106;18.046;2024-02-26T06:01:37;37.00;;;16.50;;
76729;SDS011;65653;53.106;18.046;2024-02-26T06:04:03;35.80;;;17.50;;
76729;SDS011;65653;53.106;18.046;2024-02-26T06:06:30;35.50;;;17.50;;
76729;SDS011;65653;53.106;18.046;2024-02-26T06:08:56;33.30;;;16.20;;
76729;SDS011;65653;53.106;18.046;2024-02-26T06:11:23;39.70;;;17.90;;
76729;SDS011;65653;53.106;18.046;2024-02-26T06:13:49;29.40;;;13.70;;
76729;SDS011;65653;53.106;18.046;2024-02-26T06:16:16;27.70;;;14.30;;
76729;SDS011;65653;53.106;18.046;2024-02-26T06:18:42;25.50;;;12.90;;
76729;SDS011;65653;53.106;18.046;2024-02-26T06:21:09;23.20;;;12.90;;
76729;SDS011;65653;53.106;18.046;2024-02-26T06:23:37;30.70;;;14.90;;
76729;SDS011;65653;53.106;18.046;2024-02-26T06:26:04;29.30;;;14.50;;
76729;SDS011;65653;53.106;18.046;2024-02-26T06:28:31;24.10;;;11.60;;
76729;SDS011;65653;53.106;18.046;2024-02-26T06:31:00;27.50;;;12.90;;
76729;SDS011;65653;53.106;18.046;2024-02-26T06:33:26;32.10;;;14.80;;
76729;SDS011;65653;53.106;18.046;2024-02-26T06:35:53;23.40;;;11.20;;
76729;SDS011;65653;53.106;18.046;2024-02-26T06:38:19;21.10;;;10.40;;
76729;SDS011;65653;53.106;18.046;2024-02-26T06:40:46;25.50;;;12.30;;
76729;SDS011;65653;53.106;18.046;2024-02-26T06:43:12;29.10;;;12.50;;
76729;SDS011;65653;53.106;18.046;2024-02-26T06:45:39;22.30;;;11.90;;
76729;SDS011;65653;53.106;18.046;2024-02-26T06:48:05;23.00;;;12.10;;
76729;SDS011;65653;53.106;18.046;2024-02-26T06:50:33;23.80;;;11.70;;
76729;SDS011;65653;53.106;18.046;2024-02-26T06:52:59;28.00;;;13.00;;
76729;SDS011;65653;53.106;18.046;2024-02-26T06:55:26;23.10;;;12.00;;
76729;SDS011;65653;53.106;18.046;2024-02-26T06:57:52;23.80;;;11.90;;
76729;SDS011;65653;53.106;18.046;2024-02-26T07:00:19;24.50;;;12.00;;
76729;SDS011;65653;53.106;18.046;2024-02-26T07:02:45;23.40;;;12.10;;
76729;SDS011;65653;53.106;18.046;2024-02-26T07:05:12;23.10;;;11.50;;
76729;SDS011;65653;53.106;18.046;2024-02-26T07:07:39;24.80;;;11.90;;
76729;SDS011;65653;53.106;18.046;2024-02-26T07:10:06;28.00;;;14.20;;
76729;SDS011;65653;53.106;18.046;2024-02-26T07:12:33;23.70;;;12.00;;
76729;SDS011;65653;53.106;18.046;2024-02-26T07:14:59;26.50;;;14.30;;
76729;SDS011;65653;53.106;18.046;2024-02-26T07:17:27;23.70;;;11.30;;
76729;SDS011;65653;53.106;18.046;2024-02-26T07:19:53;25.70;;;12.40;;
76729;SDS011;65653;53.106;18.046;2024-02-26T07:22:20;22.20;;;11.50;;
76729;SDS011;65653;53.106;18.046;2024-02-26T07:24:46;30.00;;;12.90;;
76729;SDS011;65653;53.106;18.046;2024-02-26T07:27:13;37.00;;;16.10;;
76729;SDS011;65653;53.106;18.046;2024-02-26T07:29:39;29.90;;;14.50;;
76729;SDS011;65653;53.106;18.046;2024-02-26T07:32:06;31.30;;;15.10;;
76729;SDS011;65653;53.106;18.046;2024-02-26T07:34:32;30.30;;;14.70;;
76729;SDS011;65653;53.106;18.046;2024-02-26T07:36:59;30.60;;;15.10;;
76729;SDS011;65653;53.106;18.046;2024-02-26T07:39:25;25.70;;;13.40;;
76729;SDS011;65653;53.106;18.046;2024-02-26T07:41:51;31.70;;;16.20;;
76729;SDS011;65653;53.106;18.046;2024-02-26T07:44:19;29.10;;;14.20;;
76729;SDS011;65653;53.106;18.046;2024-02-26T07:46:45;26.80;;;14.00;;
76729;SDS011;65653;53.106;18.046;2024-02-26T07:49:12;27.10;;;14.00;;
76729;SDS011;65653;53.106;18.046;2024-02-26T07:51:38;25.00;;;12.90;;
76729;SDS011;65653;53.106;18.046;2024-02-26T07:54:05;23.60;;;13.30;;
76729;SDS011;65653;53.106;18.046;2024-02-26T07:56:31;24.20;;;11.70;;
76729;SDS011;65653;53.106;18.046;2024-02-26T07:58:58;28.30;;;14.30;;
76729;SDS011;65653;53.106;18.046;2024-02-26T08:01:24;25.00;;;13.20;;
76729;SDS011;65653;53.106;18.046;2024-02-26T08:03:53;21.80;;;11.90;;
76729;SDS011;65653;53.106;18.046;2024-02-26T08:06:20;27.00;;;14.20;;
76729;SDS011;65653;53.106;18.046;2024-02-26T08:08:46;25.90;;;13.50;;
76729;SDS011;65653;53.106;18.046;2024-02-26T08:11:16;26.50;;;13.80;;
76729;SDS011;65653;53.106;18.046;2024-02-26T08:13:44;28.20;;;15.40;;
76729;SDS011;65653;53.106;18.046;2024-02-26T08:16:10;29.00;;;14.30;;
76729;SDS011;65653;53.106;18.046;2024-02-26T08:18:38;30.20;;;14.30;;
76729;SDS011;65653;53.106;18.046;2024-02-26T08:21:04;30.70;;;15.90;;
76729;SDS011;65653;53.106;18.046;2024-02-26T08:23:31;25.60;;;13.70;;
76729;SDS011;65653;53.106;18.046;2024-02-26T08:25:58;37.00;;;18.30;;
76729;SDS011;65653;53.106;18.046;2024-02-26T08:28:24;37.10;;;17.80;;
76729;SDS011;65653;53.106;18.046;2024-02-26T08:30:51;30.20;;;14.80;;
76729;SDS011;65653;53.106;18.046;2024-02-26T08:33:18;39.00;;;18.30;;
76729;SDS011;65653;53.106;18.046;2024-02-26T08:35:44;39.50;;;19.20;;
76729;SDS011;65653;53.106;18.046;2024-02-26T08:38:11;34.50;;;18.00;;
76729;SDS011;65653;53.106;18.046;2024-02-26T08:40:37;43.70;;;18.90;;
76729;SDS011;65653;53.106;18.046;2024-02-26T08:43:04;48.50;;;21.60;;
76729;SDS011;65653;53.106;18.046;2024-02-26T08:45:31;46.60;;;21.10;;
76729;SDS011;65653;53.106;18.046;2024-02-26T08:47:57;53.50;;;22.90;;
76729;SDS011;65653;53.106;18.046;2024-02-26T08:50:25;51.50;;;23.60;;
76729;SDS011;65653;53.106;18.046;2024-02-26T08:52:51;52.60;;;22.70;;
76729;SDS011;65653;53.106;18.046;2024-02-26T08:55:19;43.80;;;20.80;;
76729;SDS011;65653;53.106;18.046;2024-02-26T08:57:47;51.40;;;22.80;;
76729;SDS011;65653;53.106;18.046;2024-02-26T09:00:13;53.40;;;22.60;;
76729;SDS011;65653;53.106;18.046;2024-02-26T09:02:42;47.00;;;22.10;;
76729;SDS011;65653;53.106;18.046;2024-02-26T09:05:10;43.10;;;20.00;;
76729;SDS011;65653;53.106;18.046;2024-02-26T09:07:37;39.20;;;19.00;;
76729;SDS011;65653;53.106;18.046;2024-02-26T09:10:04;41.40;;;19.70;;
76729;SDS011;65653;53.106;18.046;2024-02-26T09:12:32;40.60;;;21.10;;
76729;SDS011;65653;53.106;18.046;2024-02-26T09:14:59;33.60;;;17.50;;
76729;SDS011;65653;53.106;18.046;2024-02-26T09:17:25;33.50;;;18.30;;
76729;SDS011;65653;53.106;18.046;2024-02-26T09:19:52;40.90;;;19.80;;
76729;SDS011;65653;53.106;18.046;2024-02-26T09:22:19;36.20;;;19.30;;
76729;SDS011;65653;53.106;18.046;2024-02-26T09:24:46;33.10;;;18.90;;
76729;SDS011;65653;53.106;18.046;2024-02-26T09:27:12;38.60;;;21.00;;
76729;SDS011;65653;53.106;18.046;2024-02-26T09:29:39;34.60;;;18.90;;
76729;SDS011;65653;53.106;18.046;2024-02-26T09:32:05;38.20;;;21.00;;
76729;SDS011;65653;53.106;18.046;2024-02-26T09:34:32;35.70;;;20.40;;
76729;SDS011;65653;53.106;18.046;2024-02-26T09:37:00;36.50;;;21.70;;
76729;SDS011;65653;53.106;18.046;2024-02-26T09:39:27;35.20;;;19.60;;
76729;SDS011;65653;53.106;18.046;2024-02-26T09:41:54;34.00;;;20.90;;
76729;SDS011;65653;53.106;18.046;2024-02-26T09:44:22;32.80;;;20.70;;
76729;SDS011;65653;53.106;18.046;2024-02-26T09:46:50;31.80;;;19.80;;
76729;SDS011;65653;53.106;18.046;2024-02-26T09:49:19;29.80;;;19.40;;
76729;SDS011;65653;53.106;18.046;2024-02-26T09:51:48;29.90;;;19.50;;
76729;SDS011;65653;53.106;18.046;2024-02-26T09:54:16;32.30;;;21.30;;
76729;SDS011;65653;53.106;18.046;2024-02-26T09:56:43;25.30;;;18.80;;
76729;SDS011;65653;53.106;18.046;2024-02-26T09:59:17;25.10;;;17.20;;
76729;SDS011;65653;53.106;18.046;2024-02-26T10:01:44;23.90;;;16.70;;
76729;SDS011;65653;53.106;18.046;2024-02-26T10:04:11;23.40;;;17.00;;
76729;SDS011;65653;53.106;18.046;2024-02-26T10:06:39;23.50;;;15.20;;
76729;SDS011;65653;53.106;18.046;2024-02-26T10:09:07;25.10;;;16.50;;
76729;SDS011;65653;53.106;18.046;2024-02-26T10:11:36;21.70;;;14.60;;
76729;SDS011;65653;53.106;18.046;2024-02-26T10:14:04;19.40;;;13.80;;
76729;SDS011;65653;53.106;18.046;2024-02-26T10:16:31;17.60;;;12.80;;
76729;SDS011;65653;53.106;18.046;2024-02-26T10:18:59;16.90;;;12.70;;
76729;SDS011;65653;53.106;18.046;2024-02-26T10:21:26;18.00;;;13.70;;
76729;SDS011;65653;53.106;18.046;2024-02-26T10:23:53;16.80;;;12.20;;
76729;SDS011;65653;53.106;18.046;2024-02-26T10:26:21;19.10;;;12.90;;
76729;SDS011;65653;53.106;18.046;2024-02-26T10:28:48;16.60;;;12.30;;
76729;SDS011;65653;53.106;18.046;2024-02-26T10:31:15;17.00;;;12.60;;
76729;SDS011;65653;53.106;18.046;2024-02-26T10:33:42;17.00;;;13.80;;
76729;SDS011;65653;53.106;18.046;2024-02-26T10:36:10;16.30;;;12.40;;
76729;SDS011;65653;53.106;18.046;2024-02-26T10:38:37;18.50;;;12.30;;
76729;SDS011;65653;53.106;18.046;2024-02-26T10:41:04;15.20;;;12.30;;
76729;SDS011;65653;53.106;18.046;2024-02-26T10:43:32;13.90;;;12.40;;
76729;SDS011;65653;53.106;18.046;2024-02-26T10:45:59;16.40;;;12.00;;
76729;SDS011;65653;53.106;18.046;2024-02-26T10:48:25;13.40;;;10.30;;
76729;SDS011;65653;53.106;18.046;2024-02-26T10:50:52;13.50;;;10.20;;
76729;SDS011;65653;53.106;18.046;2024-02-26T10:53:20;15.10;;;10.60;;
76729;SDS011;65653;53.106;18.046;2024-02-26T10:55:58;14.50;;;10.10;;
76729;SDS011;65653;53.106;18.046;2024-02-26T10:58:31;14.10;;;10.20;;
76729;SDS011;65653;53.106;18.046;2024-02-26T11:00:58;14.40;;;10.80;;
76729;SDS011;65653;53.106;18.046;2024-02-26T11:03:27;14.10;;;11.40;;
76729;SDS011;65653;53.106;18.046;2024-02-26T11:05:58;15.40;;;11.50;;
76729;SDS011;65653;53.106;18.046;2024-02-26T11:08:27;13.90;;;10.60;;
76729;SDS011;65653;53.106;18.046;2024-02-26T11:10:55;15.40;;;10.90;;
76729;SDS011;65653;53.106;18.046;2024-02-26T11:13:25;15.80;;;10.90;;
76729;SDS011;65653;53.106;18.046;2024-02-26T11:15:54;13.20;;;10.30;;
76729;SDS011;65653;53.106;18.046;2024-02-26T11:18:23;12.20;;;9.80;;
76729;SDS011;65653;53.106;18.046;2024-02-26T11:20:54;14.50;;;11.10;;
76729;SDS011;65653;53.106;18.046;2024-02-26T11:23:23;15.60;;;11.10;;
76729;SDS011;65653;53.106;18.046;2024-02-26T11:25:50;14.80;;;10.40;;
76729;SDS011;65653;53.106;18.046;2024-02-26T11:28:21;14.30;;;9.40;;
76729;SDS011;65653;53.106;18.046;2024-02-26T11:30:50;13.10;;;10.10;;
76729;SDS011;65653;53.106;18.046;2024-02-26T11:33:18;15.40;;;10.20;;
76729;SDS011;65653;53.106;18.046;2024-02-26T11:35:46;12.70;;;10.30;;
76729;SDS011;65653;53.106;18.046;2024-02-26T11:38:23;14.00;;;10.40;;
76729;SDS011;65653;53.106;18.046;2024-02-26T11:40:53;12.40;;;9.50;;
76729;SDS011;65653;53.106;18.046;2024-02-26T11:43:25;12.90;;;9.40;;
76729;SDS011;65653;53.106;18.046;2024-02-26T11:46:25;15.70;;;11.30;;
76729;SDS011;65653;53.106;18.046;2024-02-26T11:48:57;14.00;;;10.20;;
76729;SDS011;65653;53.106;18.046;2024-02-26T11:51:33;13.90;;;10.50;;
76729;SDS011;65653;53.106;18.046;2024-02-26T11:54:01;15.80;;;10.10;;
76729;SDS011;65653;53.106;18.046;2024-02-26T11:56:28;12.30;;;10.10;;
76729;SDS011;65653;53.106;18.046;2024-02-26T11:59:03;14.00;;;11.40;;
76729;SDS011;65653;53.106;18.046;2024-02-26T12:01:40;14.20;;;11.00;;
76729;SDS011;65653;53.106;18.046;2024-02-26T12:04:12;15.90;;;10.50;;
76729;SDS011;65653;53.106;18.046;2024-02-26T12:06:45;14.10;;;11.40;;
76729;SDS011;65653;53.106;18.046;2024-02-26T12:09:30;15.30;;;10.70;;
76729;SDS011;65653;53.106;18.046;2024-02-26T12:12:10;15.40;;;11.30;;
76729;SDS011;65653;53.106;18.046;2024-02-26T12:14:53;13.90;;;10.30;;
76729;SDS011;65653;53.106;18.046;2024-02-26T12:17:22;14.20;;;10.10;;
76729;SDS011;65653;53.106;18.046;2024-02-26T12:19:50;15.90;;;10.60;;
76729;SDS011;65653;53.106;18.046;2024-02-26T12:22:19;14.50;;;10.30;;
76729;SDS011;65653;53.106;18.046;2024-02-26T12:24:46;16.30;;;12.30;;
76729;SDS011;65653;53.106;18.046;2024-02-26T12:27:12;14.50;;;11.00;;
76729;SDS011;65653;53.106;18.046;2024-02-26T12:29:39;15.10;;;11.80;;
76729;SDS011;65653;53.106;18.046;2024-02-26T12:32:06;14.30;;;11.10;;
76729;SDS011;65653;53.106;18.046;2024-02-26T12:34:33;15.20;;;11.10;;
76729;SDS011;65653;53.106;18.046;2024-02-26T12:37:00;13.90;;;9.90;;
76729;SDS011;65653;53.106;18.046;2024-02-26T12:39:27;11.90;;;9.80;;
76729;SDS011;65653;53.106;18.046;2024-02-26T12:41:54;12.70;;;8.90;;
76729;SDS011;65653;53.106;18.046;2024-02-26T12:44:25;13.00;;;8.90;;
76729;SDS011;65653;53.106;18.046;2024-02-26T12:47:02;12.20;;;8.30;;
76729;SDS011;65653;53.106;18.046;2024-02-26T12:49:30;14.90;;;8.70;;
76729;SDS011;65653;53.106;18.046;2024-02-26T12:51:57;14.70;;;9.50;;
76729;SDS011;65653;53.106;18.046;2024-02-26T12:54:30;11.90;;;8.20;;
76729;SDS011;65653;53.106;18.046;2024-02-26T12:57:00;12.40;;;8.20;;
76729;SDS011;65653;53.106;18.046;2024-02-26T12:59:29;11.90;;;9.20;;
76729;SDS011;65653;53.106;18.046;2024-02-26T13:01:57;17.90;;;10.80;;
76729;SDS011;65653;53.106;18.046;2024-02-26T13:04:24;13.30;;;9.40;;
76729;SDS011;65653;53.106;18.046;2024-02-26T13:09:20;13.90;;;8.70;;
76729;SDS011;65653;53.106;18.046;2024-02-26T13:11:55;11.90;;;8.40;;
76729;SDS011;65653;53.106;18.046;2024-02-26T13:14:22;11.50;;;9.10;;
76729;SDS011;65653;53.106;18.046;2024-02-26T13:16:56;16.00;;;8.20;;
76729;SDS011;65653;53.106;18.046;2024-02-26T13:19:23;14.00;;;8.70;;
76729;SDS011;65653;53.106;18.046;2024-02-26T13:21:49;13.60;;;9.50;;
76729;SDS011;65653;53.106;18.046;2024-02-26T13:24:20;14.50;;;10.30;;
76729;SDS011;65653;53.106;18.046;2024-02-26T13:26:54;13.80;;;9.10;;
76729;SDS011;65653;53.106;18.046;2024-02-26T13:29:21;14.50;;;10.50;;
76729;SDS011;65653;53.106;18.046;2024-02-26T13:31:48;15.40;;;10.00;;
76729;SDS011;65653;53.106;18.046;2024-02-26T13:34:27;12.50;;;8.50;;
76729;SDS011;65653;53.106;18.046;2024-02-26T13:36:54;11.80;;;8.00;;
76729;SDS011;65653;53.106;18.046;2024-02-26T13:39:24;11.50;;;7.50;;
76729;SDS011;65653;53.106;18.046;2024-02-26T13:41:52;12.30;;;8.10;;
76729;SDS011;65653;53.106;18.046;2024-02-26T13:44:20;12.70;;;8.50;;
76729;SDS011;65653;53.106;18.046;2024-02-26T13:46:47;11.60;;;8.30;;
76729;SDS011;65653;53.106;18.046;2024-02-26T13:49:15;12.10;;;8.10;;
76729;SDS011;65653;53.106;18.046;2024-02-26T13:51:42;13.10;;;8.30;;
76729;SDS011;65653;53.106;18.046;2024-02-26T13:54:13;11.20;;;7.90;;
76729;SDS011;65653;53.106;18.046;2024-02-26T13:56:41;12.80;;;7.60;;
76729;SDS011;65653;53.106;18.046;2024-02-26T13:59:08;11.90;;;8.70;;
76729;SDS011;65653;53.106;18.046;2024-02-26T14:01:35;11.40;;;7.70;;
76729;SDS011;65653;53.106;18.046;2024-02-26T14:04:01;12.30;;;7.60;;
76729;SDS011;65653;53.106;18.046;2024-02-26T14:06:28;12.60;;;8.60;;
76729;SDS011;65653;53.106;18.046;2024-02-26T14:08:56;15.10;;;9.10;;
76729;SDS011;65653;53.106;18.046;2024-02-26T14:11:23;14.80;;;8.20;;
76729;SDS011;65653;53.106;18.046;2024-02-26T14:13:50;15.80;;;10.30;;